Time;durP1;ratioP1;P1;durP2;ratioP2;P2;SDS_P1;SDS_P2;PMS_P1;PMS_P2;Temp;Humidity;BMP_temperature;BMP_pressure;BME280_temperature;BME280_humidity;BME280_pressure;Samples;Min_cycle;Max_cycle;Signal;HPM_P1;HPM_P2
2023/08/04 00:05:10;;;;;;;;;7.00;7.00;;;;;;;;2;234072564;234072564;-58
2023/08/04 00:14:11;;;;;;;;;16.00;8.00;;;;;;;;2;279082329;279082329;-58
2023/08/04 00:23:20;;;;;;;;;8.00;8.00;;;;;;;;2;234069331;234069331;-57
2023/08/04 00:32:21;;;;;;;;;6.50;6.50;;;;;;;;2;279083711;279083711;-58
2023/08/04 00:41:30;;;;;;;;;10.00;10.00;;;;;;;;2;234069798;234069798;-59
2023/08/04 00:50:32;;;;;;;;;3.00;3.00;;;;;;;;2;279081076;279081076;-58
2023/08/04 00:59:42;;;;;;;;;4.00;4.00;;;;;;;;2;234069115;234069115;-58
2023/08/04 01:08:50;;;;;;;;;6.50;6.50;;;;;;;;2;279080687;279080687;-58
2023/08/04 01:18:00;;;;;;;;;6.00;6.00;;;;;;;;2;234070757;234070757;-58
2023/08/04 01:27:01;;;;;;;;;8.00;6.50;;;;;;;;2;279081131;279081131;-57
2023/08/04 01:36:10;;;;;;;;;3.00;3.00;;;;;;;;2;234068868;234068868;-59
2023/08/04 01:45:10;;;;;;;;;9.00;9.00;;;;;;;;2;279083755;279083755;-59
2023/08/04 01:54:20;;;;;;;;;8.50;8.50;;;;;;;;2;234071881;234071881;-58
2023/08/04 02:03:20;;;;;;;;;6.50;6.50;;;;;;;;2;279084725;279084725;-57
2023/08/04 02:12:29;;;;;;;;;7.00;7.00;;;;;;;;2;234073432;234073432;-58
2023/08/04 02:21:30;;;;;;;;;4.00;4.00;;;;;;;;2;279080417;279080417;-57
2023/08/04 02:30:39;;;;;;;;;9.00;6.50;;;;;;;;2;234071554;234071554;-57
2023/08/04 02:39:40;;;;;;;;;7.00;7.00;;;;;;;;2;279082761;279082761;-57
2023/08/04 02:48:49;;;;;;;;;5.00;5.00;;;;;;;;2;234070581;234070581;-58
2023/08/04 02:57:49;;;;;;;;;7.50;7.50;;;;;;;;2;279081230;279081230;-59
2023/08/04 03:06:59;;;;;;;;;7.00;7.00;;;;;;;;2;234072290;234072290;-58
2023/08/04 03:16:00;;;;;;;;;12.00;10.50;;;;;;;;2;279084373;279084373;-60
2023/08/04 03:25:10;;;;;;;;;6.00;6.00;;;;;;;;2;234069351;234069351;-58
2023/08/04 03:34:10;;;;;;;;;7.50;7.50;;;;;;;;2;279085238;279085238;-59
2023/08/04 03:43:19;;;;;;;;;6.50;6.50;;;;;;;;2;234068640;234068640;-58
2023/08/04 03:52:20;;;;;;;;;5.50;5.50;;;;;;;;2;279082498;279082498;-58
2023/08/04 04:01:29;;;;;;;;;6.00;6.00;;;;;;;;2;234068513;234068513;-58
2023/08/04 04:10:29;;;;;;;;;11.00;9.00;;;;;;;;2;279084122;279084122;-58
2023/08/04 04:19:39;;;;;;;;;10.00;10.00;;;;;;;;2;234070154;234070154;-56
2023/08/04 04:28:39;;;;;;;;;8.00;8.00;;;;;;;;2;279086758;279086758;-59
2023/08/04 04:37:49;;;;;;;;;9.50;9.50;;;;;;;;2;234069077;234069077;-57
2023/08/04 04:46:49;;;;;;;;;8.00;8.00;;;;;;;;2;279083051;279083051;-57
2023/08/04 04:55:58;;;;;;;;;9.50;9.50;;;;;;;;2;234070459;234070459;-59
2023/08/04 05:04:59;;;;;;;;;9.00;9.00;;;;;;;;2;279082280;279082280;-58
2023/08/04 05:14:08;;;;;;;;;7.50;7.50;;;;;;;;2;234071709;234071709;-59
2023/08/04 05:23:09;;;;;;;;;6.00;6.00;;;;;;;;2;279082325;279082325;-59
2023/08/04 05:25:34;;;;;;;;;14.50;14.00;;;;;;;;3584560;28;34387981;-59
2023/08/04 05:28:17;;;;;;;;;13.50;12.75;;;;;;;;5015801;28;50845;-58
2023/08/04 05:30:43;;;;;;;;;16.75;14.75;;;;;;;;5015857;28;50984;-58
2023/08/04 05:33:08;;;;;;;;;15.00;15.00;;;;;;;;5015469;28;51851;-59
2023/08/04 05:35:37;;;;;;;;;9.75;9.25;;;;;;;;5015366;28;51206;-59
2023/08/04 05:38:02;;;;;;;;;17.25;16.75;;;;;;;;5015792;28;50963;-59
2023/08/04 05:40:28;;;;;;;;;20.75;18.75;;;;;;;;5015769;28;50917;-58
2023/08/04 05:42:53;;;;;;;;;16.25;16.00;;;;;;;;5021667;28;52708;-57
2023/08/04 05:45:18;;;;;;;;;16.00;15.50;;;;;;;;5032284;28;31898;-57
2023/08/04 05:47:44;;;;;;;;;15.75;14.75;;;;;;;;5015947;28;50936;-59
2023/08/04 05:50:10;;;;;;;;;14.50;14.00;;;;;;;;5015741;28;51426;-58
2023/08/04 05:52:35;;;;;;;;;12.50;12.50;;;;;;;;5016020;28;51123;-58
2023/08/04 05:55:00;;;;;;;;;15.25;14.50;;;;;;;;4786335;28;6673422;-59
2023/08/04 05:57:26;;;;;;;;;13.75;13.75;;;;;;;;5015973;28;50962;-59
2023/08/04 05:59:51;;;;;;;;;15.25;14.50;;;;;;;;5015449;28;51024;-58
2023/08/04 06:02:16;;;;;;;;;15.00;14.67;;;;;;;;5011177;28;51221;-58
2023/08/04 06:04:42;;;;;;;;;18.25;14.75;;;;;;;;5013235;28;52056;-59
2023/08/04 06:07:07;;;;;;;;;15.00;15.00;;;;;;;;5014711;28;51666;-58
2023/08/04 06:09:32;;;;;;;;;14.50;14.00;;;;;;;;5028232;28;50472;-58
2023/08/04 06:11:57;;;;;;;;;15.50;15.50;;;;;;;;5030045;28;32648;-58
2023/08/04 06:14:22;;;;;;;;;14.75;14.00;;;;;;;;5032189;28;32317;-58
2023/08/04 06:16:47;;;;;;;;;18.50;17.00;;;;;;;;5032092;28;31954;-58
2023/08/04 06:19:13;;;;;;;;;18.25;16.25;;;;;;;;5032077;28;31792;-57
2023/08/04 06:21:38;;;;;;;;;17.00;16.75;;;;;;;;5031758;28;31935;-57
2023/08/04 06:24:03;;;;;;;;;12.00;11.50;;;;;;;;5031825;28;31801;-57
2023/08/04 06:26:28;;;;;;;;;15.00;14.75;;;;;;;;5032108;28;32009;-57
2023/08/04 06:28:54;;;;;;;;;17.75;16.75;;;;;;;;5032103;28;31839;-57
2023/08/04 06:31:19;;;;;;;;;19.00;17.50;;;;;;;;5031109;28;31879;-59
2023/08/04 06:33:44;;;;;;;;;13.50;13.50;;;;;;;;5030213;28;31891;-59
2023/08/04 06:36:09;;;;;;;;;17.25;14.00;;;;;;;;5024982;28;31972;-59
2023/08/04 06:38:34;;;;;;;;;17.00;16.00;;;;;;;;5009620;28;51091;-58
2023/08/04 06:40:59;;;;;;;;;16.25;14.75;;;;;;;;5005430;28;51028;-58
2023/08/04 06:43:25;;;;;;;;;18.00;16.25;;;;;;;;4994450;28;51071;-58
2023/08/04 06:45:50;;;;;;;;;20.25;19.25;;;;;;;;4994818;28;51031;-58
2023/08/04 06:48:15;;;;;;;;;21.00;17.50;;;;;;;;4993653;28;51283;-58
2023/08/04 06:50:40;;;;;;;;;16.50;13.50;;;;;;;;4994573;28;51080;-58
2023/08/04 06:53:06;;;;;;;;;18.00;17.50;;;;;;;;4994848;28;51142;-58
2023/08/04 06:55:31;;;;;;;;;16.25;16.25;;;;;;;;4994728;28;50915;-58
2023/08/04 06:57:56;;;;;;;;;21.75;20.25;;;;;;;;4994479;28;51084;-58
2023/08/04 07:00:21;;;;;;;;;21.25;20.75;;;;;;;;4994048;28;51794;-59
2023/08/04 07:02:47;;;;;;;;;19.50;17.50;;;;;;;;4994651;28;51066;-58
2023/08/04 07:05:12;;;;;;;;;17.00;17.00;;;;;;;;4994157;28;50945;-58
2023/08/04 07:07:38;;;;;;;;;17.25;17.25;;;;;;;;4994807;28;50841;-58
2023/08/04 07:10:03;;;;;;;;;17.00;16.00;;;;;;;;5013052;28;51216;-58
2023/08/04 07:12:28;;;;;;;;;16.50;16.50;;;;;;;;5012420;28;50967;-58
2023/08/04 07:14:54;;;;;;;;;16.25;15.50;;;;;;;;5014025;28;51012;-58
2023/08/04 07:17:19;;;;;;;;;19.50;18.50;;;;;;;;5014220;28;50846;-58
2023/08/04 07:28:04;;;;;;;;;;;;;;;;;;3633193;28;279081323;-58
2023/08/04 07:37:13;;;;;;;;;10.50;10.50;;;;;;;;2;234071428;234071428;-59
2023/08/04 07:46:24;;;;;;;;;15.50;14.00;;;;;;;;2;279081622;279081622;-59
2023/08/04 07:48:50;;;;;;;;;13.00;13.00;;;;;;;;1859853;28;91110131;-59
2023/08/04 07:51:15;;;;;;;;;11.50;11.00;;;;;;;;5013246;28;51078;-59
2023/08/04 07:53:40;;;;;;;;;13.33;12.67;;;;;;;;5013277;28;51431;-58
2023/08/04 07:56:06;;;;;;;;;13.00;12.00;;;;;;;;5012045;28;50975;-59
2023/08/04 07:58:31;;;;;;;;;12.00;12.00;;;;;;;;5013106;28;51066;-59
2023/08/04 08:00:56;;;;;;;;;15.00;11.33;;;;;;;;5019281;28;50789;-59
2023/08/04 08:03:22;;;;;;;;;11.00;10.67;;;;;;;;5025851;28;52142;-59
2023/08/04 08:05:47;;;;;;;;;14.67;13.33;;;;;;;;5028432;28;50841;-59
2023/08/04 08:08:13;;;;;;;;;15.75;15.75;;;;;;;;5029583;28;31810;-59
2023/08/04 08:10:38;;;;;;;;;16.00;14.67;;;;;;;;5018516;28;38233;-58
2023/08/04 08:13:03;;;;;;;;;14.67;14.00;;;;;;;;5010332;28;52535;-58
2023/08/04 08:15:28;;;;;;;;;12.00;10.67;;;;;;;;5014483;28;50913;-58
2023/08/04 08:17:53;;;;;;;;;14.67;13.67;;;;;;;;5029802;28;31816;-57
2023/08/04 08:20:19;;;;;;;;;12.33;11.33;;;;;;;;5030018;28;31701;-58
2023/08/04 08:22:44;;;;;;;;;9.67;9.67;;;;;;;;5029620;28;32114;-58
2023/08/04 08:25:12;;;;;;;;;16.00;15.00;;;;;;;;5029809;28;31895;-58
2023/08/04 08:27:37;;;;;;;;;12.33;11.00;;;;;;;;5029467;28;31885;-58
2023/08/04 08:30:03;;;;;;;;;11.00;11.00;;;;;;;;5018229;28;50995;-58
2023/08/04 08:32:28;;;;;;;;;9.67;9.67;;;;;;;;5012760;28;51960;-58
2023/08/04 08:34:53;;;;;;;;;12.50;11.25;;;;;;;;5012954;28;51130;-58
2023/08/04 08:37:18;;;;;;;;;12.67;12.67;;;;;;;;5012849;28;51189;-58
2023/08/04 08:39:43;;;;;;;;;12.00;12.00;;;;;;;;5013057;28;50969;-58
2023/08/04 08:42:08;;;;;;;;;17.00;14.67;;;;;;;;5019621;28;51862;-58
2023/08/04 08:44:34;;;;;;;;;13.00;13.00;;;;;;;;5050930;28;8849;-58
2023/08/04 08:46:59;;;;;;;;;13.00;11.33;;;;;;;;5037069;28;50972;-58
2023/08/04 08:49:26;;;;;;;;;14.67;13.00;;;;;;;;5029366;28;32037;-58
2023/08/04 08:51:52;;;;;;;;;12.67;11.00;;;;;;;;5029035;28;31748;-59
2023/08/04 08:54:18;;;;;;;;;10.33;10.33;;;;;;;;5026833;28;50955;-59
2023/08/04 08:56:43;;;;;;;;;12.33;12.00;;;;;;;;5014193;28;50884;-59
2023/08/04 08:59:09;;;;;;;;;11.00;11.00;;;;;;;;5019499;28;50880;-59
2023/08/04 09:01:34;;;;;;;;;11.00;11.00;;;;;;;;5018708;28;51940;-59
2023/08/04 09:04:00;;;;;;;;;11.33;10.00;;;;;;;;5021055;28;51013;-59
2023/08/04 09:06:25;;;;;;;;;12.67;12.67;;;;;;;;5038644;28;42555;-59
2023/08/04 09:08:50;;;;;;;;;11.67;11.00;;;;;;;;5033972;28;50414;-60
2023/08/04 09:11:16;;;;;;;;;11.67;11.00;;;;;;;;5042778;28;32760;-60
2023/08/04 09:13:42;;;;;;;;;9.67;8.33;;;;;;;;5035223;28;50967;-60
2023/08/04 09:16:11;;;;;;;;;10.33;9.67;;;;;;;;5026575;28;51027;-58
2023/08/04 09:18:37;;;;;;;;;10.00;10.00;;;;;;;;5033722;28;42166;-58
2023/08/04 09:21:08;;;;;;;;;8.00;7.67;;;;;;;;5034248;28;31825;-58
2023/08/04 09:23:52;;;;;;;;;11.67;11.33;;;;;;;;5034661;28;31889;-61
2023/08/04 09:26:17;;;;;;;;;8.00;7.00;;;;;;;;5028333;28;51024;-58
2023/08/04 09:28:42;;;;;;;;;8.67;8.67;;;;;;;;5029415;28;51132;-58
2023/08/04 09:31:12;;;;;;;;;8.00;8.00;;;;;;;;5028722;28;50880;-58
2023/08/04 09:33:38;;;;;;;;;10.33;9.67;;;;;;;;5034892;28;32179;-58
2023/08/04 09:36:04;;;;;;;;;11.33;9.00;;;;;;;;5035272;28;31719;-58
2023/08/04 09:38:29;;;;;;;;;11.00;10.00;;;;;;;;5032886;28;50284;-62
2023/08/04 09:43:03;;;;;;;;;;;;;;;;;;2414666;28;202867387;-59
2023/08/04 09:45:32;;;;;;;;;13.00;11.00;;;;;;;;3975944;28;30148266;-59
2023/08/04 09:47:57;;;;;;;;;6.00;5.25;;;;;;;;5017941;28;51256;-59
2023/08/04 09:50:23;;;;;;;;;9.33;9.33;;;;;;;;5018403;28;51026;-60
2023/08/04 09:53:02;;;;;;;;;9.67;9.67;;;;;;;;4754096;28;7589009;-59
2023/08/04 09:55:28;;;;;;;;;7.67;7.67;;;;;;;;5018097;28;51112;-59
2023/08/04 09:57:53;;;;;;;;;10.33;9.67;;;;;;;;5017624;28;51811;-59
2023/08/04 10:00:18;;;;;;;;;7.75;7.75;;;;;;;;4914083;28;3016275;-59
2023/08/04 10:02:44;;;;;;;;;7.00;7.00;;;;;;;;3982641;28;29941488;-60
2023/08/04 10:05:09;;;;;;;;;9.33;9.00;;;;;;;;5018485;28;50999;-62
2023/08/04 10:07:36;;;;;;;;;10.33;8.67;;;;;;;;5017466;28;51360;-61
2023/08/04 10:10:04;;;;;;;;;7.00;7.00;;;;;;;;5008013;28;51118;-60
2023/08/04 10:12:30;;;;;;;;;9.33;9.33;;;;;;;;4997341;28;51121;-60
2023/08/04 10:14:56;;;;;;;;;5.00;5.00;;;;;;;;2267220;28;76752654;-59
2023/08/04 10:23:16;;;;;;;;;;;;;;;;;;1595783;28;234067725;-60
2023/08/04 10:25:54;;;;;;;;;6.67;6.67;;;;;;;;5015659;28;50964;-60
2023/08/04 10:28:20;;;;;;;;;8.67;8.33;;;;;;;;5021397;28;51124;-60
2023/08/04 10:30:45;;;;;;;;;9.00;9.00;;;;;;;;5019210;28;50897;-59
2023/08/04 10:33:10;;;;;;;;;8.00;8.00;;;;;;;;5014036;28;51070;-60
2023/08/04 10:35:55;;;;;;;;;7.67;7.67;;;;;;;;5019328;28;51101;-59
2023/08/04 10:38:20;;;;;;;;;7.33;7.33;;;;;;;;5013923;28;51222;-59
2023/08/04 10:40:46;;;;;;;;;11.00;11.00;;;;;;;;1353305;28;105860562;-59
2023/08/04 10:43:12;;;;;;;;;9.00;9.00;;;;;;;;5016682;28;50840;-59
2023/08/04 10:45:53;;;;;;;;;9.33;8.00;;;;;;;;3835337;28;34026535;-59
2023/08/04 10:48:21;;;;;;;;;7.00;7.00;;;;;;;;5014043;28;50857;-59
2023/08/04 10:50:50;;;;;;;;;9.00;8.33;;;;;;;;5015239;28;50971;-59
2023/08/04 10:53:15;;;;;;;;;6.33;6.33;;;;;;;;5013841;28;51135;-60
2023/08/04 10:55:51;;;;;;;;;8.00;7.00;;;;;;;;5013554;28;51638;-60
2023/08/04 10:58:16;;;;;;;;;9.33;8.33;;;;;;;;5012187;28;50987;-60
2023/08/04 11:00:44;;;;;;;;;6.00;6.00;;;;;;;;5014124;28;50953;-61
2023/08/04 11:03:21;;;;;;;;;6.33;6.33;;;;;;;;5013857;28;51312;-60
2023/08/04 11:05:46;;;;;;;;;8.33;7.33;;;;;;;;5013470;28;51929;-59
2023/08/04 11:08:12;;;;;;;;;8.33;7.67;;;;;;;;5013446;28;51030;-59
2023/08/04 11:10:44;;;;;;;;;10.00;9.00;;;;;;;;5013973;28;50939;-59
2023/08/04 11:13:09;;;;;;;;;11.33;9.00;;;;;;;;5013348;28;50857;-59
2023/08/04 11:15:41;;;;;;;;;8.00;8.00;;;;;;;;5013222;28;50962;-58
2023/08/04 11:18:19;;;;;;;;;8.67;8.00;;;;;;;;5013582;28;51126;-60
2023/08/04 11:20:45;;;;;;;;;9.00;7.67;;;;;;;;5012943;28;51071;-60
2023/08/04 11:23:10;;;;;;;;;8.00;7.33;;;;;;;;5013771;28;50953;-58
2023/08/04 11:25:39;;;;;;;;;7.00;7.00;;;;;;;;5013306;28;51831;-58
2023/08/04 11:29:35;;;;;;;;;;;;;;;;;;3286995;28;139967465;-59
2023/08/04 11:32:00;;;;;;;;;7.00;7.00;;;;;;;;5009982;28;51146;-59
2023/08/04 11:34:26;;;;;;;;;7.00;7.00;;;;;;;;5013458;28;50899;-58
2023/08/04 11:36:51;;;;;;;;;6.67;6.33;;;;;;;;5013034;28;51229;-58
2023/08/04 11:39:17;;;;;;;;;6.00;6.00;;;;;;;;5013591;28;50983;-58
2023/08/04 11:41:42;;;;;;;;;6.00;6.00;;;;;;;;5013014;28;50877;-59
2023/08/04 11:44:08;;;;;;;;;7.33;6.00;;;;;;;;5013285;28;51059;-58
2023/08/04 11:46:33;;;;;;;;;8.33;6.33;;;;;;;;5013009;28;50943;-58
2023/08/04 11:49:01;;;;;;;;;8.00;7.00;;;;;;;;5013117;28;50995;-58
2023/08/04 11:51:26;;;;;;;;;5.33;5.33;;;;;;;;5013376;28;51012;-58
2023/08/04 11:53:51;;;;;;;;;6.67;6.00;;;;;;;;5013222;28;51414;-58
2023/08/04 11:56:17;;;;;;;;;5.67;5.67;;;;;;;;5003814;28;301970;-58
2023/08/04 11:58:43;;;;;;;;;5.00;5.00;;;;;;;;5012840;28;50952;-58
2023/08/04 12:01:30;;;;;;;;;6.00;6.00;;;;;;;;5013359;28;51170;-58
2023/08/04 12:03:55;;;;;;;;;4.00;4.00;;;;;;;;5011696;28;51420;-58
2023/08/04 12:06:21;;;;;;;;;6.33;6.00;;;;;;;;5012775;28;51031;-58
2023/08/04 12:08:51;;;;;;;;;4.67;4.67;;;;;;;;5012283;28;51016;-59
2023/08/04 12:11:17;;;;;;;;;3.00;3.00;;;;;;;;5013223;28;50940;-58
2023/08/04 12:13:42;;;;;;;;;4.00;4.00;;;;;;;;5009366;28;64636;-58
2023/08/04 12:16:08;;;;;;;;;3.00;3.00;;;;;;;;5009890;28;51670;-59
2023/08/04 12:18:34;;;;;;;;;4.00;3.00;;;;;;;;4993061;28;51034;-58
2023/08/04 12:20:59;;;;;;;;;3.00;3.00;;;;;;;;4991451;28;51144;-58
2023/08/04 12:23:24;;;;;;;;;6.67;5.67;;;;;;;;4991581;28;51273;-58
2023/08/04 12:25:50;;;;;;;;;4.00;3.00;;;;;;;;5002371;28;51754;-59
2023/08/04 12:28:15;;;;;;;;;4.67;4.00;;;;;;;;5012308;28;51019;-58
2023/08/04 12:30:41;;;;;;;;;5.00;5.00;;;;;;;;5012023;28;51443;-58
2023/08/04 12:33:06;;;;;;;;;3.67;3.67;;;;;;;;5011604;28;51221;-58
2023/08/04 12:35:31;;;;;;;;;4.33;4.00;;;;;;;;5011841;28;51951;-58
2023/08/04 12:37:57;;;;;;;;;7.33;6.67;;;;;;;;5012195;28;50947;-58
2023/08/04 12:40:22;;;;;;;;;5.00;5.00;;;;;;;;5012263;28;50996;-59
2023/08/04 12:42:48;;;;;;;;;5.00;5.00;;;;;;;;5012418;28;51147;-59
2023/08/04 12:45:13;;;;;;;;;6.00;5.67;;;;;;;;5011944;28;51807;-60
2023/08/04 12:47:38;;;;;;;;;3.33;3.33;;;;;;;;5012448;28;51152;-59
2023/08/04 12:50:03;;;;;;;;;6.00;6.00;;;;;;;;5012290;28;51035;-59
2023/08/04 12:52:29;;;;;;;;;6.33;6.33;;;;;;;;5011179;28;51009;-59
2023/08/04 12:54:54;;;;;;;;;5.67;5.00;;;;;;;;4913751;28;2854987;-60
2023/08/04 12:57:19;;;;;;;;;7.00;6.67;;;;;;;;5012015;28;50838;-59
2023/08/04 12:59:44;;;;;;;;;6.33;6.33;;;;;;;;5011961;28;51050;-58
2023/08/04 13:02:10;;;;;;;;;4.00;4.00;;;;;;;;5010901;28;51095;-59
2023/08/04 13:04:35;;;;;;;;;5.33;5.33;;;;;;;;5011545;28;52015;-59
2023/08/04 13:07:03;;;;;;;;;7.00;6.00;;;;;;;;5010514;28;51032;-59
2023/08/04 13:09:28;;;;;;;;;7.33;7.33;;;;;;;;5011540;28;51090;-59
2023/08/04 13:11:54;;;;;;;;;6.00;5.25;;;;;;;;3925379;28;31403736;-59
2023/08/04 13:14:19;;;;;;;;;7.33;7.00;;;;;;;;5010926;28;50810;-58
2023/08/04 13:16:44;;;;;;;;;7.00;7.00;;;;;;;;5011787;28;51268;-58
2023/08/04 13:19:09;;;;;;;;;6.00;6.00;;;;;;;;5011829;28;50946;-58
2023/08/04 13:21:34;;;;;;;;;8.33;7.67;;;;;;;;5012028;28;50812;-60
2023/08/04 13:24:00;;;;;;;;;6.00;6.00;;;;;;;;5011914;28;50981;-58
2023/08/04 13:26:25;;;;;;;;;6.33;6.33;;;;;;;;5004745;28;50934;-59
2023/08/04 13:28:50;;;;;;;;;3.67;3.67;;;;;;;;4992002;28;50963;-58
2023/08/04 13:31:16;;;;;;;;;6.00;6.00;;;;;;;;4998791;28;51066;-58
2023/08/04 13:33:41;;;;;;;;;7.00;7.00;;;;;;;;5011739;28;50957;-58
2023/08/04 13:36:06;;;;;;;;;7.67;7.00;;;;;;;;5011049;28;51038;-58
2023/08/04 13:38:31;;;;;;;;;7.00;6.00;;;;;;;;5011411;28;51032;-59
2023/08/04 13:40:56;;;;;;;;;7.00;6.33;;;;;;;;5005638;28;51142;-59
2023/08/04 13:43:22;;;;;;;;;6.00;6.00;;;;;;;;4993215;28;51101;-59
2023/08/04 13:45:47;;;;;;;;;5.00;5.00;;;;;;;;4993607;28;53099;-59
2023/08/04 13:48:12;;;;;;;;;5.00;4.00;;;;;;;;4994842;28;50978;-59
2023/08/04 13:50:38;;;;;;;;;4.33;4.33;;;;;;;;4995062;28;50893;-59
2023/08/04 13:53:03;;;;;;;;;13.00;12.33;;;;;;;;4995225;28;51215;-59
2023/08/04 13:55:28;;;;;;;;;6.00;6.00;;;;;;;;4993234;28;53892;-59
2023/08/04 13:57:53;;;;;;;;;7.00;7.00;;;;;;;;4994860;28;51165;-58
2023/08/04 14:00:18;;;;;;;;;4.00;4.00;;;;;;;;4994612;28;50988;-58
2023/08/04 14:02:44;;;;;;;;;6.67;5.67;;;;;;;;4995021;28;50940;-58
2023/08/04 14:05:09;;;;;;;;;4.00;4.00;;;;;;;;5002568;28;51815;-58
2023/08/04 14:07:37;;;;;;;;;6.00;5.33;;;;;;;;4994463;28;51067;-58
2023/08/04 14:10:03;;;;;;;;;7.00;7.00;;;;;;;;5007713;28;50926;-59
2023/08/04 14:12:31;;;;;;;;;6.00;5.67;;;;;;;;4994287;28;50927;-58
2023/08/04 14:14:56;;;;;;;;;5.00;5.00;;;;;;;;4998999;28;51977;-58
2023/08/04 14:17:21;;;;;;;;;7.00;6.00;;;;;;;;5001993;28;51083;-59
2023/08/04 14:19:47;;;;;;;;;4.33;4.33;;;;;;;;4994767;28;51017;-58
2023/08/04 14:22:12;;;;;;;;;6.00;5.00;;;;;;;;4599607;28;7384242;-58
2023/08/04 14:24:38;;;;;;;;;5.00;5.00;;;;;;;;3220044;28;23148306;-58
2023/08/04 14:27:04;;;;;;;;;8.00;8.00;;;;;;;;5014264;28;51226;-59
2023/08/04 14:29:29;;;;;;;;;6.00;5.00;;;;;;;;5013670;28;51284;-59
2023/08/04 14:31:55;;;;;;;;;5.67;5.00;;;;;;;;5013893;28;51101;-58
2023/08/04 14:34:20;;;;;;;;;4.00;4.00;;;;;;;;5013860;28;51024;-59
2023/08/04 14:36:45;;;;;;;;;5.00;3.67;;;;;;;;5014082;28;51041;-58
2023/08/04 14:39:10;;;;;;;;;3.00;3.00;;;;;;;;5014018;28;51113;-59
2023/08/04 14:41:36;;;;;;;;;4.33;4.00;;;;;;;;5014010;28;50932;-59
2023/08/04 14:44:01;;;;;;;;;3.67;3.67;;;;;;;;5013628;28;50796;-59
2023/08/04 14:46:26;;;;;;;;;3.33;3.00;;;;;;;;5012668;28;51041;-59
2023/08/04 14:48:51;;;;;;;;;5.33;5.33;;;;;;;;5013354;28;50920;-59
2023/08/04 14:51:16;;;;;;;;;5.00;5.00;;;;;;;;5013427;28;50892;-60
2023/08/04 14:53:42;;;;;;;;;4.00;4.00;;;;;;;;5012419;28;51043;-59
2023/08/04 14:56:07;;;;;;;;;3.67;3.67;;;;;;;;5012765;28;51040;-59
2023/08/04 14:58:32;;;;;;;;;5.00;4.67;;;;;;;;5011831;28;51141;-61
2023/08/04 15:01:07;;;;;;;;;3.33;3.33;;;;;;;;5013626;28;50882;-59
2023/08/04 15:03:36;;;;;;;;;5.33;5.00;;;;;;;;5013729;28;50821;-59
2023/08/04 15:06:08;;;;;;;;;4.67;4.67;;;;;;;;5013608;28;51172;-59
2023/08/04 15:08:33;;;;;;;;;7.33;5.67;;;;;;;;5013410;28;52366;-59
2023/08/04 15:10:59;;;;;;;;;6.67;6.67;;;;;;;;4999509;28;50967;-59
2023/08/04 15:20:14;;;;;;;;;;;;;;;;;;2066884;28;261079907;-59
2023/08/04 15:30:09;;;;;;;;;4.00;4.00;;;;;;;;2;315095601;315095601;-58
2023/08/04 15:34:27;;;;;;;;;4.00;4.00;;;;;;;;2;258166278;258166278;-60
2023/08/04 15:36:53;;;;;;;;;4.00;4.00;;;;;;;;5009709;28;51158;-59
2023/08/04 15:39:18;;;;;;;;;3.00;3.00;;;;;;;;5012622;28;50964;-62
2023/08/04 15:41:43;;;;;;;;;5.00;5.00;;;;;;;;5012882;28;50966;-59
2023/08/04 15:44:08;;;;;;;;;6.00;4.67;;;;;;;;5012508;28;51057;-59
2023/08/04 15:46:33;;;;;;;;;4.00;4.00;;;;;;;;5012611;28;51212;-58
2023/08/04 15:48:59;;;;;;;;;2.00;2.00;;;;;;;;5012537;28;51068;-58
2023/08/04 15:51:24;;;;;;;;;12.00;11.33;;;;;;;;5012811;28;51049;-59
2023/08/04 15:53:51;;;;;;;;;4.67;4.67;;;;;;;;5012636;28;51034;-58
2023/08/04 15:56:16;;;;;;;;;3.50;3.50;;;;;;;;5011690;28;51391;-59
2023/08/04 15:58:41;;;;;;;;;6.00;6.00;;;;;;;;5012504;28;51065;-58
2023/08/04 16:01:06;;;;;;;;;7.00;5.67;;;;;;;;5012938;28;51080;-58
2023/08/04 16:03:31;;;;;;;;;4.67;4.00;;;;;;;;5010974;28;51015;-58
2023/08/04 16:05:58;;;;;;;;;5.00;5.00;;;;;;;;5012265;28;51281;-59
2023/08/04 16:08:25;;;;;;;;;4.00;3.00;;;;;;;;5012114;28;51170;-58
2023/08/04 16:11:00;;;;;;;;;5.00;4.33;;;;;;;;5012104;28;50968;-59
2023/08/04 16:13:26;;;;;;;;;4.33;4.33;;;;;;;;5002930;28;309380;-59
2023/08/04 16:15:58;;;;;;;;;5.33;5.00;;;;;;;;5009079;28;51168;-59
2023/08/04 16:18:23;;;;;;;;;7.33;6.00;;;;;;;;4999320;28;51145;-59
2023/08/04 16:20:52;;;;;;;;;6.00;6.00;;;;;;;;4995631;28;51021;-58
2023/08/04 16:23:18;;;;;;;;;5.00;5.00;;;;;;;;4999636;28;50935;-59
2023/08/04 16:25:43;;;;;;;;;7.00;5.00;;;;;;;;5010623;28;52975;-59
2023/08/04 16:28:08;;;;;;;;;5.00;5.00;;;;;;;;5012464;28;50832;-59
2023/08/04 16:30:33;;;;;;;;;4.00;4.00;;;;;;;;5012551;28;50870;-59
2023/08/04 16:32:59;;;;;;;;;4.33;4.33;;;;;;;;5012395;28;51105;-58
2023/08/04 16:35:24;;;;;;;;;6.33;5.33;;;;;;;;5012050;28;51752;-59
2023/08/04 16:37:49;;;;;;;;;5.67;5.00;;;;;;;;5012534;28;50822;-58
2023/08/04 16:40:14;;;;;;;;;5.00;5.00;;;;;;;;5012716;28;51055;-59
2023/08/04 16:42:39;;;;;;;;;6.00;6.00;;;;;;;;5012166;28;51270;-58
2023/08/04 16:45:05;;;;;;;;;6.00;5.67;;;;;;;;5012009;28;51650;-59
2023/08/04 16:47:30;;;;;;;;;8.00;7.00;;;;;;;;5010753;28;51064;-59
2023/08/04 16:49:56;;;;;;;;;6.00;6.00;;;;;;;;5012227;28;50845;-57
2023/08/04 16:52:21;;;;;;;;;6.33;6.00;;;;;;;;5010817;28;51330;-59
2023/08/04 16:54:46;;;;;;;;;8.00;7.00;;;;;;;;5011821;28;51928;-59
2023/08/04 16:57:11;;;;;;;;;7.67;6.33;;;;;;;;5011572;28;51224;-59
2023/08/04 16:59:37;;;;;;;;;7.00;7.00;;;;;;;;5011766;28;50919;-59
2023/08/04 17:02:02;;;;;;;;;4.67;4.67;;;;;;;;5011917;28;51111;-58
2023/08/04 17:04:29;;;;;;;;;5.67;5.67;;;;;;;;5011617;28;51861;-58
2023/08/04 17:06:54;;;;;;;;;6.00;5.00;;;;;;;;5010305;28;51044;-58
2023/08/04 17:09:19;;;;;;;;;7.00;7.00;;;;;;;;4999350;28;51023;-58
2023/08/04 17:11:45;;;;;;;;;5.00;4.00;;;;;;;;4991481;28;50937;-58
2023/08/04 17:14:15;;;;;;;;;5.00;5.00;;;;;;;;4991579;28;51788;-58
2023/08/04 17:16:40;;;;;;;;;8.33;7.33;;;;;;;;4991794;28;50973;-58
2023/08/04 17:19:06;;;;;;;;;6.00;6.00;;;;;;;;5005574;28;50969;-58
2023/08/04 17:21:33;;;;;;;;;6.67;6.67;;;;;;;;5015468;28;51074;-59
2023/08/04 17:23:58;;;;;;;;;6.67;6.67;;;;;;;;5013721;28;52144;-59
2023/08/04 17:26:25;;;;;;;;;7.67;7.67;;;;;;;;5014648;28;50929;-57
2023/08/04 17:28:52;;;;;;;;;7.00;7.00;;;;;;;;5014895;28;51071;-58
2023/08/04 17:31:17;;;;;;;;;8.00;8.00;;;;;;;;5014978;28;51213;-57
2023/08/04 17:33:43;;;;;;;;;8.00;8.00;;;;;;;;5014403;28;51851;-57
2023/08/04 17:36:08;;;;;;;;;9.00;8.67;;;;;;;;5014713;28;50924;-59
2023/08/04 17:38:33;;;;;;;;;7.00;6.33;;;;;;;;5013299;28;51295;-58
2023/08/04 17:40:58;;;;;;;;;4.67;4.67;;;;;;;;5014879;28;51147;-57
2023/08/04 17:43:24;;;;;;;;;6.33;6.33;;;;;;;;5014628;28;51066;-58
2023/08/04 17:45:49;;;;;;;;;7.00;7.00;;;;;;;;5014669;28;50979;-59
2023/08/04 17:48:14;;;;;;;;;7.00;6.00;;;;;;;;5014469;28;51157;-58
2023/08/04 17:50:40;;;;;;;;;8.33;7.00;;;;;;;;5014544;28;51246;-57
2023/08/04 17:53:05;;;;;;;;;8.67;8.00;;;;;;;;5014262;28;51848;-58
2023/08/04 17:55:30;;;;;;;;;9.00;8.00;;;;;;;;5014320;28;50933;-58
2023/08/04 17:57:55;;;;;;;;;9.00;8.33;;;;;;;;5014234;28;51062;-58
2023/08/04 18:00:20;;;;;;;;;7.00;7.00;;;;;;;;5014464;28;50893;-60
2023/08/04 18:02:46;;;;;;;;;10.00;9.00;;;;;;;;5014223;28;52011;-58
2023/08/04 18:05:11;;;;;;;;;8.33;8.33;;;;;;;;5014214;28;51132;-59
2023/08/04 18:07:37;;;;;;;;;8.00;8.00;;;;;;;;5014640;28;51068;-58
2023/08/04 18:10:02;;;;;;;;;6.00;6.00;;;;;;;;4996370;28;52420;-58
2023/08/04 18:12:27;;;;;;;;;10.00;10.00;;;;;;;;4992525;28;51752;-57
2023/08/04 18:14:52;;;;;;;;;10.00;10.00;;;;;;;;4993980;28;51235;-60
2023/08/04 18:17:18;;;;;;;;;6.00;6.00;;;;;;;;5003130;28;51139;-59
2023/08/04 18:19:43;;;;;;;;;9.00;9.00;;;;;;;;4996708;28;51317;-59
2023/08/04 18:22:08;;;;;;;;;12.67;12.33;;;;;;;;4994135;28;51559;-59
2023/08/04 18:24:33;;;;;;;;;11.00;11.00;;;;;;;;4994062;28;51108;-58
2023/08/04 18:26:59;;;;;;;;;9.67;9.67;;;;;;;;4993945;28;50996;-57
2023/08/04 18:29:24;;;;;;;;;9.33;8.33;;;;;;;;4997525;28;51246;-58
2023/08/04 18:31:49;;;;;;;;;10.00;9.67;;;;;;;;5013837;28;51078;-58
2023/08/04 18:34:14;;;;;;;;;10.00;10.00;;;;;;;;5013788;28;50948;-58
2023/08/04 18:36:39;;;;;;;;;10.33;9.33;;;;;;;;5014325;28;51063;-60
2023/08/04 18:39:05;;;;;;;;;10.67;10.67;;;;;;;;5014252;28;51286;-59
2023/08/04 18:41:31;;;;;;;;;10.67;10.33;;;;;;;;5013545;28;51163;-59
2023/08/04 18:43:57;;;;;;;;;11.00;10.00;;;;;;;;5012269;28;51019;-57
2023/08/04 18:46:22;;;;;;;;;10.33;10.00;;;;;;;;5014113;28;51128;-57
2023/08/04 18:48:47;;;;;;;;;11.00;10.00;;;;;;;;5014044;28;51259;-58
2023/08/04 18:51:12;;;;;;;;;11.00;9.00;;;;;;;;5013539;28;51838;-59
2023/08/04 18:53:39;;;;;;;;;11.00;10.33;;;;;;;;5013760;28;51106;-58
2023/08/04 18:56:04;;;;;;;;;11.33;11.33;;;;;;;;5013547;28;50900;-58
2023/08/04 18:58:29;;;;;;;;;12.67;12.67;;;;;;;;5013853;28;51005;-58
2023/08/04 19:00:54;;;;;;;;;9.00;9.00;;;;;;;;5013245;28;52057;-58
2023/08/04 19:03:20;;;;;;;;;12.33;11.67;;;;;;;;5013503;28;50858;-58